createdAt,value
2022-07-30T00:00:04.758Z,91.50
2022-07-30T00:00:24.983Z,91.40
2022-07-30T00:00:25.037Z,91.30
2022-07-30T00:00:32.988Z,91.20
2022-07-30T00:00:42.394Z,91.10
2022-07-30T00:00:51.855Z,91.10
2022-07-30T00:01:01.285Z,91.00
2022-07-30T00:01:10.701Z,91.00
2022-07-30T00:01:20.179Z,90.90
2022-07-30T00:01:29.606Z,90.90
2022-07-30T00:01:38.983Z,90.80
2022-07-30T00:01:48.375Z,90.80
2022-07-30T00:02:07.215Z,90.70
2022-07-30T00:02:16.681Z,90.70
2022-07-30T00:02:26.094Z,90.70
2022-07-30T00:02:35.498Z,90.70
2022-07-30T00:02:44.932Z,90.70
2022-07-30T00:02:54.368Z,90.70
2022-07-30T00:03:03.789Z,90.70
2022-07-30T00:03:13.304Z,90.70
2022-07-30T00:03:22.709Z,90.70
2022-07-30T00:03:32.158Z,90.70
2022-07-30T00:03:41.621Z,90.70
2022-07-30T00:03:51.566Z,90.80
2022-07-30T00:04:00.441Z,90.80
2022-07-30T00:04:09.888Z,90.70
2022-07-30T00:04:19.173Z,90.80
2022-07-30T00:04:28.581Z,90.80
2022-07-30T00:04:47.481Z,90.90
2022-07-30T00:04:56.905Z,90.90
2022-07-30T00:05:06.327Z,90.90
2022-07-30T00:05:15.791Z,91.00
2022-07-30T00:05:25.209Z,91.00
2022-07-30T00:05:34.637Z,91.00
2022-07-30T00:05:44.050Z,91.10
2022-07-30T00:05:53.477Z,91.10
2022-07-30T00:06:02.889Z,91.10
2022-07-30T00:06:12.307Z,91.10
2022-07-30T00:06:21.716Z,91.10
2022-07-30T00:06:31.142Z,91.20
2022-07-30T00:06:40.554Z,91.20
2022-07-30T00:06:49.956Z,91.20
2022-07-30T00:06:59.604Z,91.20
2022-07-30T00:07:08.839Z,91.30
2022-07-30T00:07:27.660Z,91.40
2022-07-30T00:07:37.068Z,91.50
2022-07-30T00:07:46.492Z,91.60
2022-07-30T00:07:55.893Z,91.60
2022-07-30T00:08:05.306Z,91.50
2022-07-30T00:08:14.838Z,91.60
2022-07-30T00:08:24.234Z,91.70
2022-07-30T00:08:33.695Z,91.70
2022-07-30T00:08:43.110Z,91.70
2022-07-30T00:08:52.537Z,91.80
2022-07-30T00:09:01.970Z,91.80
2022-07-30T00:09:11.414Z,91.80
2022-07-30T00:09:20.880Z,91.90
2022-07-30T00:09:30.294Z,91.90
2022-07-30T00:09:39.709Z,92.00
2022-07-30T00:09:49.131Z,92.00
2022-07-30T00:09:58.527Z,92.00
2022-07-30T00:10:17.325Z,92.00
2022-07-30T00:10:26.799Z,92.10
2022-07-30T00:10:36.290Z,92.10
2022-07-30T00:10:45.907Z,92.10
2022-07-30T00:10:55.068Z,92.00
2022-07-30T00:11:04.469Z,92.00
2022-07-30T00:11:13.880Z,92.00
2022-07-30T00:11:27.501Z,92.00
2022-07-30T00:11:32.708Z,92.00
2022-07-30T00:11:42.119Z,92.10
2022-07-30T00:11:51.510Z,92.10
2022-07-30T00:12:00.941Z,92.10
2022-07-30T00:12:10.367Z,92.10
2022-07-30T00:12:19.777Z,92.10
2022-07-30T00:12:29.185Z,92.20
2022-07-30T00:12:38.610Z,92.30
2022-07-30T00:12:57.442Z,92.30
2022-07-30T00:13:06.867Z,92.40
2022-07-30T00:13:16.297Z,92.40
2022-07-30T00:13:25.718Z,92.50
2022-07-30T00:13:35.143Z,92.50
2022-07-30T00:13:44.560Z,92.60
2022-07-30T00:13:53.974Z,92.60
2022-07-30T00:14:03.419Z,92.70
2022-07-30T00:14:12.826Z,92.70
2022-07-30T00:14:22.218Z,92.60
2022-07-30T00:14:31.662Z,92.70
2022-07-30T00:14:41.074Z,92.60
2022-07-30T00:14:50.493Z,92.60
2022-07-30T00:14:59.911Z,92.60
2022-07-30T00:15:09.308Z,92.60
2022-07-30T00:15:18.719Z,92.70
2022-07-30T00:15:37.511Z,92.80
2022-07-30T00:15:46.959Z,92.80
2022-07-30T00:15:56.369Z,92.80
2022-07-30T00:16:05.785Z,92.90
2022-07-30T00:16:15.295Z,92.90
2022-07-30T00:16:24.746Z,93.00
2022-07-30T00:16:34.147Z,92.90
2022-07-30T00:16:43.572Z,93.00
2022-07-30T00:16:53.007Z,93.00
2022-07-30T00:17:02.806Z,93.00
2022-07-30T00:17:11.808Z,93.00
2022-07-30T00:17:21.129Z,92.90
2022-07-30T00:17:30.561Z,93.00
2022-07-30T00:17:39.973Z,93.00
2022-07-30T00:17:49.518Z,93.00
2022-07-30T00:17:58.853Z,93.00
2022-07-30T00:18:18.986Z,93.10
2022-07-30T00:18:28.414Z,93.10
2022-07-30T00:18:37.809Z,93.10
2022-07-30T00:18:47.243Z,93.10
2022-07-30T00:18:56.676Z,93.10
2022-07-30T00:19:07.025Z,93.10
2022-07-30T00:19:15.575Z,93.00
2022-07-30T00:19:24.931Z,93.10
2022-07-30T00:19:34.352Z,93.20
2022-07-30T00:19:43.880Z,93.20
2022-07-30T00:19:53.276Z,93.10
2022-07-30T00:20:02.965Z,93.30
2022-07-30T00:20:12.136Z,93.30
2022-07-30T00:20:21.554Z,93.30
2022-07-30T00:20:30.983Z,93.30
2022-07-30T00:20:40.607Z,93.30
2022-07-30T00:20:49.807Z,93.30
2022-07-30T00:20:59.289Z,93.40
2022-07-30T00:21:08.679Z,93.40
2022-07-30T00:21:36.182Z,93.50
2022-07-30T00:21:38.979Z,93.40
2022-07-30T00:21:46.388Z,93.50
2022-07-30T00:21:55.791Z,93.40
2022-07-30T00:22:05.230Z,93.50
2022-07-30T00:22:14.681Z,93.50
2022-07-30T00:22:24.100Z,93.50
2022-07-30T00:22:33.551Z,93.50
2022-07-30T00:22:42.970Z,93.50
2022-07-30T00:22:52.376Z,93.60
2022-07-30T00:23:01.862Z,93.60
2022-07-30T00:23:11.311Z,93.60
2022-07-30T00:23:20.759Z,93.60
2022-07-30T00:23:30.168Z,93.60
2022-07-30T00:23:39.593Z,93.60
2022-07-30T00:24:01.932Z,93.60
2022-07-30T00:24:02.001Z,93.60
2022-07-30T00:24:17.368Z,93.70
2022-07-30T00:24:26.769Z,93.70
2022-07-30T00:24:36.190Z,93.80
2022-07-30T00:24:45.602Z,93.80
2022-07-30T00:24:55.033Z,93.80
2022-07-30T00:25:04.453Z,93.80
2022-07-30T00:25:13.924Z,93.90
2022-07-30T00:25:23.355Z,93.90
2022-07-30T00:25:32.768Z,93.90
2022-07-30T00:25:42.182Z,93.90
2022-07-30T00:25:51.595Z,93.90
2022-07-30T00:26:01.069Z,94.00
2022-07-30T00:26:10.471Z,94.00
2022-07-30T00:26:19.873Z,94.00
2022-07-30T00:26:29.344Z,94.00
2022-07-30T00:26:38.763Z,94.00
2022-07-30T00:26:57.797Z,94.00
2022-07-30T00:27:07.039Z,94.10
2022-07-30T00:27:16.493Z,94.00
2022-07-30T00:27:25.897Z,94.00
2022-07-30T00:27:35.326Z,94.10
2022-07-30T00:27:44.744Z,94.10
2022-07-30T00:27:54.141Z,94.10
2022-07-30T00:28:03.551Z,94.10
2022-07-30T00:28:13.059Z,94.20
2022-07-30T00:28:22.540Z,94.20
2022-07-30T00:28:31.985Z,94.20
2022-07-30T00:28:41.440Z,94.20
2022-07-30T00:28:50.882Z,94.30
2022-07-30T00:29:00.298Z,94.30
2022-07-30T00:29:09.685Z,94.30
2022-07-30T00:29:19.091Z,94.40
2022-07-30T00:29:28.515Z,94.40
2022-07-30T00:29:47.325Z,94.40
2022-07-30T00:29:56.730Z,94.40
2022-07-30T00:30:06.146Z,94.40
2022-07-30T00:30:15.566Z,94.40
2022-07-30T00:30:25.042Z,94.50
2022-07-30T00:30:34.473Z,94.50
2022-07-30T00:30:43.943Z,94.50
2022-07-30T00:30:54.986Z,94.50
2022-07-30T00:31:02.675Z,94.50
2022-07-30T00:31:12.130Z,94.50
2022-07-30T00:31:21.440Z,94.50
2022-07-30T00:31:30.879Z,94.60
2022-07-30T00:31:40.273Z,94.50
2022-07-30T00:31:49.682Z,94.50
2022-07-30T00:31:59.074Z,94.50
2022-07-30T00:32:08.475Z,94.60
2022-07-30T00:32:27.364Z,94.70
2022-07-30T00:32:36.769Z,94.80
2022-07-30T00:32:46.215Z,94.80
2022-07-30T00:32:55.624Z,94.80
2022-07-30T00:33:05.022Z,94.80
2022-07-30T00:33:14.445Z,94.80
2022-07-30T00:33:23.895Z,94.80
2022-07-30T00:33:33.325Z,94.80
2022-07-30T00:33:42.749Z,94.80
2022-07-30T00:33:52.163Z,94.80
2022-07-30T00:34:01.550Z,94.80
2022-07-30T00:34:11.000Z,94.80
2022-07-30T00:34:20.427Z,94.80
2022-07-30T00:34:29.849Z,94.90
2022-07-30T00:34:39.249Z,94.90
2022-07-30T00:34:48.651Z,94.90
2022-07-30T00:35:07.460Z,94.90
2022-07-30T00:35:16.874Z,94.90
2022-07-30T00:35:26.268Z,94.90
2022-07-30T00:35:35.693Z,94.90
2022-07-30T00:35:45.114Z,94.90
2022-07-30T00:35:54.528Z,94.90
2022-07-30T00:36:03.935Z,94.90
2022-07-30T00:36:13.335Z,94.90
2022-07-30T00:36:22.755Z,94.90
2022-07-30T00:36:32.254Z,94.90
2022-07-30T00:36:41.676Z,94.90
2022-07-30T00:36:51.121Z,94.90
2022-07-30T00:37:00.801Z,94.90
2022-07-30T00:37:09.943Z,95.00
2022-07-30T00:37:19.360Z,95.00
2022-07-30T00:37:28.765Z,95.00
2022-07-30T00:37:47.612Z,95.10
2022-07-30T00:37:57.039Z,95.10
2022-07-30T00:38:06.454Z,95.20
2022-07-30T00:38:15.925Z,95.20
2022-07-30T00:38:25.368Z,95.20
2022-07-30T00:38:34.771Z,95.10
2022-07-30T00:38:44.205Z,95.20
2022-07-30T00:38:53.630Z,95.30
2022-07-30T00:39:03.055Z,95.30
2022-07-30T00:39:12.471Z,95.30
2022-07-30T00:39:21.938Z,95.30
2022-07-30T00:39:31.366Z,95.40
2022-07-30T00:39:40.822Z,95.40
2022-07-30T00:39:50.244Z,95.30
2022-07-30T00:39:59.651Z,95.40
2022-07-30T00:40:09.076Z,95.50
2022-07-30T00:40:18.483Z,95.60
2022-07-30T00:40:37.311Z,95.60
2022-07-30T00:40:46.720Z,95.60
2022-07-30T00:40:56.131Z,95.50
2022-07-30T00:41:05.567Z,95.50
2022-07-30T00:41:15.656Z,95.60
2022-07-30T00:41:24.376Z,95.60
2022-07-30T00:41:33.780Z,95.60
2022-07-30T00:41:43.178Z,95.50
2022-07-30T00:41:52.571Z,95.50
2022-07-30T00:42:01.984Z,95.60
2022-07-30T00:42:11.429Z,95.60
2022-07-30T00:42:20.850Z,95.70
2022-07-30T00:42:30.277Z,95.70
2022-07-30T00:42:39.677Z,95.70
2022-07-30T00:42:49.085Z,95.70
2022-07-30T00:42:58.477Z,95.60
2022-07-30T00:43:17.363Z,95.70
2022-07-30T00:43:26.797Z,95.70
2022-07-30T00:43:36.209Z,95.70
2022-07-30T00:43:45.610Z,95.60
2022-07-30T00:43:55.018Z,95.60
2022-07-30T00:44:04.458Z,95.60
2022-07-30T00:44:13.860Z,95.60
2022-07-30T00:44:23.282Z,95.60
2022-07-30T00:44:32.709Z,95.60
2022-07-30T00:44:42.131Z,95.70
2022-07-30T00:44:51.523Z,95.70
2022-07-30T00:45:00.959Z,95.70
2022-07-30T00:45:10.383Z,95.70
2022-07-30T00:45:19.785Z,95.70
2022-07-30T00:45:29.224Z,95.60
2022-07-30T00:45:38.678Z,95.60
2022-07-30T00:45:57.550Z,95.70
2022-07-30T00:46:06.936Z,95.70
2022-07-30T00:46:16.332Z,95.70
2022-07-30T00:46:25.683Z,95.70
2022-07-30T00:46:35.091Z,95.70
2022-07-30T00:46:44.494Z,95.70
2022-07-30T00:46:53.898Z,95.70
2022-07-30T00:47:03.789Z,95.70
2022-07-30T00:47:12.737Z,95.70
2022-07-30T00:47:22.137Z,95.70
2022-07-30T00:47:31.616Z,95.70
2022-07-30T00:47:41.024Z,95.70
2022-07-30T00:47:50.445Z,95.70
2022-07-30T00:47:59.842Z,95.80
2022-07-30T00:48:09.251Z,95.70
2022-07-30T00:48:18.655Z,95.70
2022-07-30T00:48:28.394Z,95.80
2022-07-30T00:48:47.320Z,95.80
2022-07-30T00:48:56.709Z,95.90
2022-07-30T00:49:06.153Z,95.90
2022-07-30T00:49:15.625Z,95.90
2022-07-30T00:49:25.032Z,95.90
2022-07-30T00:49:34.374Z,95.90
2022-07-30T00:49:44.451Z,95.80
2022-07-30T00:49:53.222Z,95.80
2022-07-30T00:50:02.635Z,95.80
2022-07-30T00:50:12.041Z,95.80
2022-07-30T00:50:21.641Z,95.80
2022-07-30T00:50:30.897Z,95.90
2022-07-30T00:50:40.304Z,95.80
2022-07-30T00:50:49.716Z,95.80
2022-07-30T00:50:59.110Z,95.90
2022-07-30T00:51:08.516Z,95.90
2022-07-30T00:51:27.304Z,96.00
2022-07-30T00:51:36.700Z,96.00
2022-07-30T00:51:46.103Z,96.00
2022-07-30T00:51:55.500Z,96.00
2022-07-30T00:52:04.905Z,96.10
2022-07-30T00:52:14.379Z,96.00
2022-07-30T00:52:23.788Z,96.00
2022-07-30T00:52:33.178Z,96.00
2022-07-30T00:52:42.562Z,95.90
2022-07-30T00:52:51.959Z,95.90
2022-07-30T00:53:01.438Z,95.80
2022-07-30T00:53:10.852Z,95.70
2022-07-30T00:53:20.333Z,95.70
2022-07-30T00:53:29.743Z,95.60
2022-07-30T00:53:39.167Z,95.30
2022-07-30T00:53:48.575Z,95.20
2022-07-30T00:54:07.418Z,94.80
2022-07-30T00:54:16.913Z,94.70
2022-07-30T00:54:26.311Z,94.50
2022-07-30T00:54:35.718Z,94.40
2022-07-30T00:54:45.130Z,94.20
2022-07-30T00:54:54.528Z,94.10
2022-07-30T00:55:03.929Z,94.00
2022-07-30T00:55:13.340Z,93.90
2022-07-30T00:55:22.737Z,93.80
2022-07-30T00:55:32.153Z,93.70
2022-07-30T00:55:41.586Z,93.70
2022-07-30T00:55:51.086Z,93.70
2022-07-30T00:56:00.550Z,93.70
2022-07-30T00:56:09.950Z,93.70
2022-07-30T00:56:19.353Z,93.60
2022-07-30T00:56:28.761Z,93.60
2022-07-30T00:56:47.589Z,93.40
2022-07-30T00:56:57.190Z,93.40
2022-07-30T00:57:06.405Z,93.30
2022-07-30T00:57:15.853Z,93.20
2022-07-30T00:57:25.253Z,93.20
2022-07-30T00:57:34.656Z,93.10
2022-07-30T00:57:44.049Z,93.00
2022-07-30T00:57:53.467Z,92.80
2022-07-30T00:58:02.885Z,92.60
2022-07-30T00:58:12.296Z,92.50
2022-07-30T00:58:21.786Z,92.50
2022-07-30T00:58:31.227Z,92.30
2022-07-30T00:58:40.627Z,92.20
2022-07-30T00:58:50.026Z,92.10
2022-07-30T00:58:59.429Z,91.90
2022-07-30T00:59:08.849Z,91.80
2022-07-30T00:59:27.659Z,91.70
2022-07-30T00:59:37.050Z,91.60
2022-07-30T00:59:46.507Z,91.50
2022-07-30T00:59:55.931Z,91.40
2022-07-30T01:00:05.329Z,91.30
2022-07-30T01:00:14.731Z,91.20
2022-07-30T01:00:24.122Z,91.10
2022-07-30T01:00:33.521Z,90.90
2022-07-30T01:00:42.987Z,90.80
2022-07-30T01:00:52.409Z,90.80
2022-07-30T01:01:01.800Z,90.60
2022-07-30T01:01:11.207Z,90.60
2022-07-30T01:01:20.605Z,90.40
2022-07-30T01:01:30.076Z,90.30
2022-07-30T01:01:39.394Z,90.20
2022-07-30T01:01:48.883Z,90.10
2022-07-30T01:02:07.638Z,89.80
2022-07-30T01:02:17.037Z,89.60
2022-07-30T01:02:26.487Z,89.40
2022-07-30T01:02:35.854Z,89.20
2022-07-30T01:02:45.195Z,89.00
2022-07-30T01:02:54.614Z,88.90
2022-07-30T01:03:04.036Z,88.80
2022-07-30T01:03:13.424Z,88.50
2022-07-30T01:03:22.911Z,88.40
2022-07-30T01:03:32.365Z,88.30
2022-07-30T01:03:41.790Z,88.10
2022-07-30T01:03:51.179Z,87.90
2022-07-30T01:04:00.663Z,87.70
2022-07-30T01:04:10.080Z,87.60
2022-07-30T01:04:19.493Z,87.50
2022-07-30T01:04:28.892Z,87.20
2022-07-30T01:04:47.772Z,87.00
2022-07-30T01:04:57.212Z,86.90
2022-07-30T01:05:06.644Z,86.80
2022-07-30T01:05:16.058Z,86.60
2022-07-30T01:05:25.469Z,86.60
2022-07-30T01:05:34.880Z,86.30
2022-07-30T01:05:44.288Z,86.10
2022-07-30T01:05:53.659Z,86.10
2022-07-30T01:06:03.052Z,85.90
2022-07-30T01:06:14.413Z,85.80
2022-07-30T01:06:21.884Z,85.80
2022-07-30T01:06:31.363Z,85.60
2022-07-30T01:06:40.760Z,85.50
2022-07-30T01:06:50.147Z,85.40
2022-07-30T01:06:59.801Z,85.30
2022-07-30T01:07:08.983Z,85.20
2022-07-30T01:07:18.366Z,85.10
2022-07-30T01:07:37.225Z,84.80
2022-07-30T01:07:46.646Z,84.70
2022-07-30T01:07:56.044Z,84.50
2022-07-30T01:08:05.456Z,84.40
2022-07-30T01:08:15.851Z,84.50
2022-07-30T01:08:24.307Z,84.30
2022-07-30T01:08:33.728Z,84.30
2022-07-30T01:08:43.148Z,84.30
2022-07-30T01:08:52.543Z,84.30
2022-07-30T01:09:01.993Z,84.20
2022-07-30T01:09:11.411Z,84.00
2022-07-30T01:09:20.838Z,84.00
2022-07-30T01:09:30.252Z,83.90
2022-07-30T01:09:39.675Z,83.70
2022-07-30T01:09:49.083Z,83.60
2022-07-30T01:09:58.587Z,83.50
2022-07-30T01:10:17.313Z,83.30
2022-07-30T01:10:26.725Z,83.20
2022-07-30T01:10:36.137Z,83.20
2022-07-30T01:10:45.586Z,83.20
2022-07-30T01:10:55.012Z,83.10
2022-07-30T01:11:04.413Z,83.00
2022-07-30T01:11:13.852Z,83.00
2022-07-30T01:11:23.273Z,82.90
2022-07-30T01:11:32.683Z,82.90
2022-07-30T01:11:42.116Z,82.90
2022-07-30T01:11:51.552Z,82.90
2022-07-30T01:12:01.003Z,82.90
2022-07-30T01:12:10.393Z,82.90
2022-07-30T01:12:19.798Z,82.90
2022-07-30T01:12:29.210Z,82.90
2022-07-30T01:12:38.637Z,82.90
2022-07-30T01:12:57.452Z,82.90
2022-07-30T01:13:06.863Z,82.90
2022-07-30T01:13:16.273Z,82.90
2022-07-30T01:13:25.673Z,82.90
2022-07-30T01:13:35.114Z,82.90
2022-07-30T01:13:44.515Z,82.90
2022-07-30T01:13:53.954Z,82.90
2022-07-30T01:14:03.387Z,82.80
2022-07-30T01:14:12.811Z,82.90
2022-07-30T01:14:22.242Z,83.00
2022-07-30T01:14:31.689Z,83.00
2022-07-30T01:14:41.088Z,83.10
2022-07-30T01:14:50.497Z,83.20
2022-07-30T01:14:59.930Z,83.20
2022-07-30T01:15:09.342Z,83.40
2022-07-30T01:15:18.765Z,83.50
2022-07-30T01:15:37.581Z,83.70
2022-07-30T01:15:47.061Z,83.80
2022-07-30T01:15:56.491Z,84.00
2022-07-30T01:16:05.972Z,84.10
2022-07-30T01:16:15.481Z,84.20
2022-07-30T01:16:24.838Z,84.40
2022-07-30T01:16:34.326Z,84.60
2022-07-30T01:16:43.776Z,84.70
2022-07-30T01:16:53.199Z,84.90
2022-07-30T01:17:03.011Z,85.20
2022-07-30T01:17:11.935Z,85.30
2022-07-30T01:17:21.405Z,85.40
2022-07-30T01:17:30.921Z,85.60
2022-07-30T01:17:40.345Z,85.80
2022-07-30T01:17:53.088Z,86.00
2022-07-30T01:17:59.188Z,86.20
2022-07-30T01:18:08.607Z,86.50
2022-07-30T01:18:27.441Z,86.90
2022-07-30T01:18:36.864Z,87.00
2022-07-30T01:18:46.260Z,87.10
2022-07-30T01:18:55.668Z,87.30
2022-07-30T01:19:05.116Z,87.50
2022-07-30T01:19:14.515Z,87.70
2022-07-30T01:19:23.953Z,87.90
2022-07-30T01:19:33.578Z,88.10
2022-07-30T01:19:43.108Z,88.30
2022-07-30T01:19:52.562Z,88.60
2022-07-30T01:20:01.986Z,88.60
2022-07-30T01:20:11.425Z,88.80
2022-07-30T01:20:20.827Z,89.00
2022-07-30T01:20:30.246Z,89.10
2022-07-30T01:20:39.655Z,89.20
2022-07-30T01:20:49.072Z,89.40
2022-07-30T01:20:58.502Z,89.70
2022-07-30T01:21:17.337Z,90.00
2022-07-30T01:21:26.759Z,90.10
2022-07-30T01:21:36.176Z,90.20
2022-07-30T01:21:45.596Z,90.30
2022-07-30T01:21:55.016Z,90.40
2022-07-30T01:22:04.439Z,90.40
2022-07-30T01:22:13.861Z,90.50
2022-07-30T01:22:23.277Z,90.60
2022-07-30T01:22:32.703Z,90.60
2022-07-30T01:22:42.121Z,90.60
2022-07-30T01:22:51.522Z,90.70
2022-07-30T01:23:00.990Z,90.80
2022-07-30T01:23:10.393Z,90.90
2022-07-30T01:23:19.779Z,91.00
2022-07-30T01:23:29.188Z,91.10
2022-07-30T01:23:38.626Z,91.20
2022-07-30T01:23:57.608Z,91.20
2022-07-30T01:24:07.009Z,91.30
2022-07-30T01:24:16.431Z,91.40
2022-07-30T01:24:25.855Z,91.50
2022-07-30T01:24:35.272Z,91.50
2022-07-30T01:24:44.698Z,91.60
2022-07-30T01:24:54.124Z,91.60
2022-07-30T01:25:03.571Z,91.70
2022-07-30T01:25:12.959Z,91.70
2022-07-30T01:25:22.377Z,91.70
2022-07-30T01:25:31.858Z,91.80
2022-07-30T01:25:41.304Z,91.80
2022-07-30T01:25:50.705Z,91.80
2022-07-30T01:26:00.126Z,91.80
2022-07-30T01:26:09.537Z,91.80
2022-07-30T01:26:18.941Z,91.90
2022-07-30T01:26:28.333Z,91.90
2022-07-30T01:26:47.208Z,92.10
2022-07-30T01:26:56.670Z,92.20
2022-07-30T01:27:06.044Z,92.20
2022-07-30T01:27:19.612Z,92.20
2022-07-30T01:27:25.025Z,92.30
2022-07-30T01:27:34.427Z,92.30
2022-07-30T01:27:43.841Z,92.30
2022-07-30T01:27:53.256Z,92.30
2022-07-30T01:28:02.659Z,92.40
2022-07-30T01:28:12.056Z,92.40
2022-07-30T01:28:21.460Z,92.30
2022-07-30T01:28:30.905Z,92.30
2022-07-30T01:28:40.377Z,92.30
2022-07-30T01:28:49.791Z,92.30
2022-07-30T01:28:59.201Z,92.30
2022-07-30T01:29:08.641Z,92.30
2022-07-30T01:29:27.469Z,92.40
2022-07-30T01:29:36.889Z,92.40
2022-07-30T01:29:46.327Z,92.50
2022-07-30T01:29:55.786Z,92.50
2022-07-30T01:30:05.210Z,92.50
2022-07-30T01:30:14.606Z,92.50
2022-07-30T01:30:24.031Z,92.60
2022-07-30T01:30:34.848Z,92.50
2022-07-30T01:30:42.828Z,92.50
2022-07-30T01:30:52.248Z,92.50
2022-07-30T01:31:01.673Z,92.50
2022-07-30T01:31:11.174Z,92.50
2022-07-30T01:31:20.594Z,92.50
2022-07-30T01:31:29.976Z,92.50
2022-07-30T01:31:39.500Z,92.40
2022-07-30T01:31:48.931Z,92.40
2022-07-30T01:32:07.710Z,92.50
2022-07-30T01:32:17.126Z,92.50
2022-07-30T01:32:26.556Z,92.50
2022-07-30T01:32:35.978Z,92.50
2022-07-30T01:32:45.408Z,92.50
2022-07-30T01:32:54.811Z,92.50
2022-07-30T01:33:04.238Z,92.50
2022-07-30T01:33:13.641Z,92.50
2022-07-30T01:33:23.060Z,92.50
2022-07-30T01:33:32.473Z,92.50
2022-07-30T01:33:41.916Z,92.50
2022-07-30T01:33:51.316Z,92.50
2022-07-30T01:34:00.740Z,92.40
2022-07-30T01:34:10.156Z,92.40
2022-07-30T01:34:19.576Z,92.50
2022-07-30T01:34:29.069Z,92.40
2022-07-30T01:34:38.480Z,92.40
2022-07-30T01:34:57.332Z,92.40
2022-07-30T01:35:06.883Z,92.30
2022-07-30T01:35:16.303Z,92.30
2022-07-30T01:35:25.701Z,92.30
2022-07-30T01:35:35.133Z,92.30
2022-07-30T01:35:44.534Z,92.30
2022-07-30T01:35:53.962Z,92.30
2022-07-30T01:36:03.407Z,92.30
2022-07-30T01:36:12.831Z,92.30
2022-07-30T01:36:22.249Z,92.30
2022-07-30T01:36:31.675Z,92.30
2022-07-30T01:36:41.201Z,92.30
2022-07-30T01:36:50.616Z,92.30
2022-07-30T01:37:00.479Z,92.30
2022-07-30T01:37:09.560Z,92.30
2022-07-30T01:37:20.425Z,92.30
2022-07-30T01:37:28.399Z,92.30
2022-07-30T01:37:47.254Z,92.20
2022-07-30T01:37:56.650Z,92.20
2022-07-30T01:38:06.052Z,92.20
2022-07-30T01:38:15.516Z,92.10
2022-07-30T01:38:24.929Z,92.10
2022-07-30T01:38:34.954Z,92.10
2022-07-30T01:38:43.794Z,92.10
2022-07-30T01:38:53.203Z,92.00
2022-07-30T01:39:02.611Z,91.90
2022-07-30T01:39:12.029Z,91.80
2022-07-30T01:39:21.515Z,91.70
2022-07-30T01:39:30.950Z,91.70
2022-07-30T01:39:40.376Z,91.70
2022-07-30T01:39:49.801Z,91.70
2022-07-30T01:39:59.209Z,91.70
2022-07-30T01:40:08.656Z,91.70
2022-07-30T01:40:27.498Z,91.60
2022-07-30T01:40:36.909Z,91.50
2022-07-30T01:40:46.372Z,91.40
2022-07-30T01:40:55.759Z,91.40
2022-07-30T01:41:05.208Z,91.40
2022-07-30T01:41:14.626Z,91.40
2022-07-30T01:41:24.030Z,91.30
2022-07-30T01:41:33.424Z,91.40
2022-07-30T01:41:42.827Z,91.50
2022-07-30T01:41:52.233Z,91.40
2022-07-30T01:42:01.685Z,91.50
2022-07-30T01:42:11.187Z,91.50
2022-07-30T01:42:20.611Z,91.50
2022-07-30T01:42:30.020Z,91.50
2022-07-30T01:42:39.441Z,91.50
2022-07-30T01:42:48.849Z,91.50
2022-07-30T01:43:08.130Z,91.40
2022-07-30T01:43:17.081Z,91.40
2022-07-30T01:43:26.504Z,91.40
2022-07-30T01:43:35.924Z,91.40
2022-07-30T01:43:45.406Z,91.40
2022-07-30T01:43:54.823Z,91.40
2022-07-30T01:44:04.246Z,91.30
2022-07-30T01:44:13.660Z,91.40
2022-07-30T01:44:23.945Z,91.30
2022-07-30T01:44:32.533Z,91.40
2022-07-30T01:44:41.943Z,91.40
2022-07-30T01:44:51.346Z,91.40
2022-07-30T01:45:00.841Z,91.40
2022-07-30T01:45:10.271Z,91.40
2022-07-30T01:45:19.721Z,91.40
2022-07-30T01:45:29.102Z,91.50
2022-07-30T01:45:41.988Z,91.50
2022-07-30T01:45:57.348Z,91.50
2022-07-30T01:46:06.857Z,91.50
2022-07-30T01:46:16.235Z,91.50
2022-07-30T01:46:25.652Z,91.60
2022-07-30T01:46:34.985Z,91.50
2022-07-30T01:46:44.408Z,91.50
2022-07-30T01:46:53.803Z,91.60
2022-07-30T01:47:03.518Z,91.60
2022-07-30T01:47:12.615Z,91.60
2022-07-30T01:47:22.023Z,91.60
2022-07-30T01:47:31.509Z,91.60
2022-07-30T01:47:40.910Z,91.70
2022-07-30T01:47:50.518Z,91.60
2022-07-30T01:47:59.925Z,91.70
2022-07-30T01:48:09.326Z,91.70
2022-07-30T01:48:18.780Z,91.80
2022-07-30T01:48:28.354Z,91.80
2022-07-30T01:48:47.364Z,91.80
2022-07-30T01:48:56.672Z,91.80
2022-07-30T01:49:06.152Z,91.80
2022-07-30T01:49:15.600Z,91.90
2022-07-30T01:49:24.943Z,91.90
2022-07-30T01:49:34.327Z,91.90
2022-07-30T01:49:43.741Z,91.90
2022-07-30T01:49:53.164Z,91.90
2022-07-30T01:50:02.586Z,91.90
2022-07-30T01:50:12.007Z,91.80
2022-07-30T01:50:21.431Z,91.80
2022-07-30T01:50:30.842Z,91.80
2022-07-30T01:50:40.267Z,91.80
2022-07-30T01:50:49.690Z,91.80
2022-07-30T01:50:59.095Z,91.80
2022-07-30T01:51:08.496Z,91.80
2022-07-30T01:51:27.309Z,91.80
2022-07-30T01:51:37.674Z,91.80
2022-07-30T01:51:46.091Z,91.80
2022-07-30T01:51:55.499Z,91.80
2022-07-30T01:52:04.898Z,91.80
2022-07-30T01:52:14.284Z,91.70
2022-07-30T01:52:23.679Z,91.80
2022-07-30T01:52:33.081Z,91.70
2022-07-30T01:52:42.594Z,91.70
2022-07-30T01:52:51.999Z,91.70
2022-07-30T01:53:01.423Z,91.70
2022-07-30T01:53:10.833Z,91.80
2022-07-30T01:53:20.257Z,91.80
2022-07-30T01:53:29.647Z,91.80
2022-07-30T01:53:39.056Z,91.80
2022-07-30T01:53:48.835Z,91.80
2022-07-30T01:54:07.649Z,91.80
2022-07-30T01:54:17.070Z,91.80
2022-07-30T01:54:26.466Z,91.80
2022-07-30T01:54:35.871Z,91.70
2022-07-30T01:54:45.275Z,91.70
2022-07-30T01:54:54.691Z,91.70
2022-07-30T01:55:04.094Z,91.70
2022-07-30T01:55:17.290Z,91.80
2022-07-30T01:55:22.941Z,91.70
2022-07-30T01:55:32.387Z,91.70
2022-07-30T01:55:41.812Z,91.80
2022-07-30T01:55:51.274Z,91.80
2022-07-30T01:56:00.697Z,91.80
2022-07-30T01:56:10.763Z,91.90
2022-07-30T01:56:19.503Z,91.90
2022-07-30T01:56:28.929Z,91.90
2022-07-30T01:56:38.336Z,91.80
2022-07-30T01:56:57.681Z,91.80
2022-07-30T01:57:06.596Z,91.80
2022-07-30T01:57:16.046Z,91.90
2022-07-30T01:57:25.466Z,91.80
2022-07-30T01:57:34.889Z,91.80
2022-07-30T01:57:44.282Z,91.80
2022-07-30T01:57:53.700Z,91.80
2022-07-30T01:58:03.251Z,91.80
2022-07-30T01:58:12.685Z,91.80
2022-07-30T01:58:22.068Z,91.70
2022-07-30T01:58:31.479Z,91.70
2022-07-30T01:58:40.906Z,91.70
2022-07-30T01:58:50.376Z,91.70
2022-07-30T01:58:59.797Z,91.70
2022-07-30T01:59:09.231Z,91.70
2022-07-30T01:59:18.602Z,91.70
2022-07-30T01:59:37.413Z,91.70
2022-07-30T01:59:46.846Z,91.70
2022-07-30T01:59:56.311Z,91.80
2022-07-30T02:00:05.720Z,91.80
2022-07-30T02:00:15.163Z,91.80
2022-07-30T02:00:24.602Z,91.80
2022-07-30T02:00:34.057Z,91.80
2022-07-30T02:00:43.503Z,91.80
2022-07-30T02:00:52.901Z,91.80
2022-07-30T02:01:02.348Z,91.80
2022-07-30T02:01:11.801Z,91.80
2022-07-30T02:01:21.204Z,91.80
2022-07-30T02:01:30.623Z,91.80
2022-07-30T02:01:39.953Z,91.80
2022-07-30T02:01:49.362Z,91.80
2022-07-30T02:01:58.781Z,91.90
2022-07-30T02:02:18.016Z,91.90
2022-07-30T02:02:27.086Z,91.90
2022-07-30T02:02:36.486Z,91.80
2022-07-30T02:02:45.927Z,91.80
2022-07-30T02:02:55.350Z,91.90
2022-07-30T02:03:04.763Z,91.80
2022-07-30T02:03:14.247Z,91.90
2022-07-30T02:03:23.602Z,91.80
2022-07-30T02:03:33.094Z,91.80
2022-07-30T02:03:42.546Z,91.80
2022-07-30T02:03:51.998Z,91.90
2022-07-30T02:04:01.458Z,91.90
2022-07-30T02:04:10.748Z,91.90
2022-07-30T02:04:20.135Z,91.90
2022-07-30T02:04:29.543Z,92.00
2022-07-30T02:04:38.976Z,92.00
2022-07-30T02:04:48.396Z,92.00
2022-07-30T02:05:07.202Z,92.00
2022-07-30T02:05:16.630Z,92.00
2022-07-30T02:05:26.037Z,92.00
2022-07-30T02:05:35.461Z,92.00
2022-07-30T02:05:44.881Z,92.00
2022-07-30T02:05:54.303Z,92.00
2022-07-30T02:06:03.719Z,92.10
2022-07-30T02:06:13.268Z,92.10
2022-07-30T02:06:22.711Z,92.10
2022-07-30T02:06:32.164Z,92.10
2022-07-30T02:06:41.610Z,92.00
2022-07-30T02:06:51.035Z,92.00
2022-07-30T02:07:00.748Z,92.10
2022-07-30T02:07:09.873Z,92.10
2022-07-30T02:07:19.300Z,92.10
2022-07-30T02:07:28.718Z,92.10
2022-07-30T02:07:47.562Z,92.20
2022-07-30T02:07:56.976Z,92.30
2022-07-30T02:08:06.399Z,92.30
2022-07-30T02:08:15.819Z,92.40
2022-07-30T02:08:25.220Z,92.40
2022-07-30T02:08:34.627Z,92.40
2022-07-30T02:08:44.051Z,92.40